Highlands Peak, California Weather observations

Data are for observation ending at time listed.
 Day   Time    Ave.   Ave.  Ave.  Vector   Max.   Stn.    Total    Solar   Ave.  
  of    of     Air    Rel.  Wind   Wind    Wind   Baro.  Precip.   Rad.    Soil  
Year   Day     Temp.  Hum.  Speed  Dir.    Gust   Pres.                    Temp. 
2026   (PST)    F      %     mph   deg.    mph     mb.     in.     W/m2     F   
------------------------------------------------------------------------------
 244   22:10   53.5    76    3.1   289      4.2   930.4    0.00       0    75.8
 244   22:20   53.7    75    3.0   302      4.5   930.3    0.00       0    75.7
 244   22:30   54.1    73    3.5   280      4.8   930.3    0.00       0    75.6
 244   22:40   53.6    75    4.0   267      5.1   930.3    0.00       0    75.5
 244   22:50   53.5    73    3.8   266      4.8   930.4    0.00       0    75.4
 244   23:00   53.4    72    2.3   290      3.9   930.4    0.00       0    75.3
 244   23:10   54.5    71    1.5   292      2.4   930.5    0.00       0    75.1
 244   23:20   54.7    70    0.8   128      1.5   930.5    0.00       0    75.1
 244   23:30   54.8    69    2.2   144      2.9   930.6    0.00       0    75.1
 244   23:40   54.3    69    2.2   121      2.7   930.6    0.00       0    75.2
 244   23:50   54.6    69    3.3   117      4.2   930.6    0.00       0    75.1
 245    0:00   54.7    66    2.8   159      3.5   930.6    0.00       0    74.9
 245    0:10   54.8    62    2.0   124      3.5   930.6    0.00       0    74.8
 245    0:20   55.0    61    1.0   147      2.7   930.6    0.00       0    74.8
 245    0:30   55.0    62    0.8   117      3.5   930.7    0.00       0    74.6
 245    0:40   55.0    60    0.7    63      1.8   930.6    0.00       0    74.6
 245    0:50   55.1    60    1.8    65      2.1   930.5    0.00       0    74.6
 245    1:00   55.2    61    1.1    78      2.1   930.4    0.00       0    74.5
 245    1:10   55.3    60    1.1   181      2.5   930.4    0.00       0    74.3
 245    1:20   54.6    63    1.6   107      3.6   930.4    0.00       0    74.2
 245    1:30   53.4    70    4.0   102      5.2   930.4    0.00       0    74.3
 245    1:40   52.6    72    3.4   141      4.7   930.3    0.00       0    74.1
 245    1:50   52.2    73    4.0   127      5.0   930.3    0.00       0    74.2
 245    2:00   52.4    73    4.7   118      5.0   930.4    0.00       0    74.2
 245    2:10   52.4    74    4.3   122      4.8   930.5    0.00       0    74.0
 245    2:20   52.5    73    4.6   113      5.4   930.5    0.00       0    74.0
 245    2:30   52.6    73    3.9   102      4.4   930.6    0.00       0    74.0
 245    2:40   52.7    74    3.3    66      4.1   930.5    0.00       0    73.9
 245    2:50   52.9    71    3.5    40      4.2   930.5    0.00       0    73.7
 245    3:00   53.2    68    2.0    35      3.4   930.5    0.00       0    73.6
 245    3:10   54.0    65    0.3   292      1.1   930.5    0.00       0    73.5
 245    3:20   54.1    65    1.3   277      1.9   930.6    0.00       0    73.3
 245    3:30   54.0    64    2.4   303      3.1   930.6    0.00       0    73.1
 245    3:40   54.0    65    3.9   302      5.3   930.7    0.00       0    73.0
 245    3:50   52.7    69    5.5   280      7.0   930.7    0.00       0    73.0
 245    4:00   51.5    74    4.5   283      5.3   930.8    0.00       0    73.0
 245    4:10   51.4    75    4.3   283      5.5   930.8    0.00       0    72.9
 245    4:20   51.4    74    3.5   278      4.7   930.8    0.00       0    72.8
 245    4:30   52.0    73    2.8   281      4.2   930.7    0.00       0    72.7
 245    4:40   53.6    68    1.7   274      2.2   930.6    0.00       0    72.5
 245    4:50   54.3    65    1.9   300      5.6   930.6    0.00       0    72.4
 245    5:00   54.0    66    4.1   289      5.7   930.6    0.00       0    72.3
 245    5:10   53.6    70    5.4   273      7.7   930.7    0.00       0    72.1
 245    5:20   53.2    72    6.2   278      8.5   930.8    0.00       0    72.1
 245    5:30   52.9    73    6.2   287      7.7   930.9    0.00       1    72.0
 245    5:40   53.3    71    4.9   318      7.2   930.8    0.00       3    72.0
 245    5:50   53.5    72    5.7   319      7.8   930.9    0.00       6    71.8
 245    6:00   53.5    73    5.2   316      7.1   931.0    0.00       8    71.7
 245    6:10   53.7    69    4.5   341      5.6   930.9    0.00      12    71.7
 245    6:20   54.6    63    4.8   341      6.2   931.0    0.00      14    71.7
 245    6:30   55.4    61    4.7   351      6.1   931.0    0.00      92    71.6
 245    6:40   56.1    61    4.7   332      6.0   931.1    0.00     169    71.4
 245    6:50   55.6    64    3.5   276      4.9   931.2    0.00     205    71.2
 245    7:00   54.5    70    4.8   264      7.2   931.3    0.00     241    70.9
 245    7:10   54.1    74    6.2   261      8.7   931.4    0.00     277    70.7
 245    7:20   54.1    74    6.3   266      8.9   931.5    0.00     313    70.4
 245    7:30   54.8    72    4.6   285      6.2   931.6    0.00     349    70.4
 245    7:40   55.3    72    4.8   285      6.3   931.6    0.00     385    70.3
 245    7:50   55.4    71    3.9   269      6.2   931.7    0.00     419    70.1
 245    8:00   55.8    70    2.8   250      4.8   931.7    0.00     453    69.9
 245    8:10   56.9    67    1.3   266      2.4   931.7    0.00     488    69.9
 245    8:20   58.6    62    2.1   279      4.7   931.8    0.00     520    69.9
 245    8:30   59.2    60    2.3   229      4.0   931.8    0.00     549    69.8
 245    8:40   59.5    60    2.2   231      4.7   931.8    0.00     581    69.7
 245    8:50   59.1    62    4.4   225      6.1   931.9    0.00     613    69.6
 245    9:00   58.9    64    4.4   230      6.7   932.0    0.00     643    69.5
 245    9:10   58.1    65    5.9   234      8.8   932.1    0.00     671    69.5
 245    9:20   57.7    67    5.0   243      9.9   932.2    0.00     698    69.5
 245    9:30   59.5    63    6.0   254      9.9   932.2    0.00     723    69.5
 245    9:40   60.1    62    4.0   235      8.4   932.3    0.00     734    69.6
 245    9:50   59.6    65    4.7   233      8.3   932.3    0.00     762    69.6
 245   10:00   59.6    65    3.8   239      6.0   932.3    0.00     782    69.7
 245   10:10   60.1    64    4.6   243      8.6   932.3    0.00     796    69.7
 245   10:20   60.2    67    5.3   239      8.6   932.4    0.00     803    69.7
 245   10:30   59.5    70    5.1   236      9.2   932.4    0.00     829    69.8
 245   10:40   61.0    67    6.2   238      9.6   932.4    0.00     838    69.9
 245   10:50   61.1    68    6.3   237      9.7   932.4    0.00     856    69.9
 245   11:00   61.1    66    5.3   241      8.8   932.4    0.00     852    70.0
 245   11:10   61.6    64    5.0   245      9.3   932.4    0.00     873    70.1
 245   11:20   61.5    64    7.3   244     11.3   932.3    0.00     880    70.2
 245   11:30   61.1    65    7.8   239     13.0   932.3    0.00     884    70.2
 245   11:40   61.8    62    9.0   234     13.0   932.3    0.00     889    70.3
 245   11:50   61.5    64    9.1   228     13.1   932.2    0.00     891    70.4
 245   12:00   62.2    63    8.7   242     13.9   932.3    0.00     892    70.5
 245   12:10   63.3    61    7.6   224     12.6   932.2    0.00     892    70.7
 245   12:20   63.3    61    7.9   239     12.2   932.1    0.00     889    70.9
 245   12:30   63.7    60   10.3   233     14.4   932.2    0.00     885    71.1
 245   12:40   63.0    60   11.5   233     16.2   932.2    0.00     879    71.2
 245   12:50   63.1    63    8.6   232     14.2   932.2    0.00     871    71.4
 245   13:00   63.7    62   10.3   230     15.6   932.2    0.00     861    71.7
 245   13:10   64.3    60   13.1   238     17.9   932.2    0.00     850    72.0
 245   13:20   64.5    60   13.0   242     17.0   932.2    0.00     838    72.4
 245   13:30   64.5    59   13.4   238     19.8   932.1    0.00     825    72.7
 245   13:40   64.2    58   13.7   241     19.3   932.0    0.00     809    73.0
 245   13:50   63.8    60   12.9   244     18.8   932.1    0.00     790    73.4
 245   14:00   63.7    61   11.6   242     16.3   932.0    0.00     772    73.7
 245   14:10   63.7    60   11.7   243     17.3   931.9    0.00     731    74.0
 245   14:20   64.0    59   11.3   244     15.7   931.8    0.00     732    74.3
 245   14:30   63.8    60   10.0   244     14.2   931.8    0.00     710    74.6
 245   14:40   63.0    62    9.4   243     12.9   931.8    0.00     687    74.9
 245   14:50   62.8    64    8.3   242     12.6   931.8    0.00     664    75.2
 245   15:00   63.0    63    7.8   246     12.8   931.6    0.00     639    75.5
 245   15:10   63.0    63    7.3   250     12.5   931.5    0.00     610    75.8
 245   15:20   61.8    69    6.0   249     11.6   931.4    0.00     582    76.1
 245   15:30   62.9    67    8.0   251     12.1   931.3    0.00     551    76.3
 245   15:40   63.0    67    6.5   241     11.5   931.2    0.00     520    76.5
 245   15:50   63.2    66    5.6   232      9.5   931.2    0.00     489    76.8
 245   16:00   63.8    63    5.9   235      9.1   931.0    0.00     458    77.1
 245   16:10   64.1    63    5.8   236      8.7   930.8    0.00     424    77.3
 245   16:20   64.4    63    6.3   233      9.7   930.8    0.00     391    77.5
 245   16:30   63.8    64    6.6   226      9.4   930.7    0.00     356    77.8
 245   16:40   63.3    65    6.1   234     10.3   930.7    0.00     323    78.0
 245   16:50   62.6    70    6.0   231      8.8   930.8    0.00     288    78.2
 245   17:00   61.4    74    7.1   234     10.8   930.8    0.00     253    78.3
 245   17:10   60.4    77    7.6   234     11.5   930.8    0.00     219    78.5
 245   17:20   60.4    78    6.4   236      9.5   930.7    0.00     186    78.6
 245   17:30   60.3    80    5.8   235     10.2   930.6    0.00     152    78.6
 245   17:40   59.9    83    3.8   233      7.3   930.5    0.00     116    78.6
 245   17:50   59.7    84    3.9   234      6.7   930.4    0.00     100    78.7
 245   18:00   59.4    82    3.1   221      5.8   930.4    0.00      76    78.7
 245   18:10   58.7    82    2.3   224      3.9   930.3    0.00      53    78.7
 245   18:20   58.1    84    2.2   239      3.5   930.2    0.00      33    78.7
 245   18:30   57.0    88    1.9   240      3.6   930.2    0.00      17    78.7
 245   18:40   56.2    88    1.8   241      3.4   930.2    0.00       5    78.7
 245   18:50   55.4    89    2.1   255      3.4   930.2    0.00       1    78.7
 245   19:00   55.1    90    2.4   264      3.6   930.2    0.00       0    78.6
 245   19:10   55.1    88    2.8   250      4.0   930.2    0.00       0    78.6
 245   19:20   55.3    83    3.1   255      4.2   930.2    0.00       0    78.5
 245   19:30   55.2    84    3.4   271      4.3   930.1    0.00       0    78.5
 245   19:40   54.7    87    3.4   278      3.8   930.2    0.00       0    78.5
 245   19:50   54.5    91    4.6   284      5.7   930.3    0.00       0    78.5
 245   20:00   54.8    94    5.1   286      6.3   930.3    0.00       0    78.4
 245   20:10   54.8    91    4.8   287      6.4   930.4    0.00       0    78.4
 245   20:20   54.8    87    5.2   282      6.6   930.4    0.00       0    78.3
 245   20:30   55.0    80    5.6   284      7.0   930.4    0.00       0    78.2
 245   20:40   55.4    78    6.1   278      7.7   930.4    0.00       0    78.2
 245   20:50   55.3    78    6.4   280      7.4   930.4    0.00       0    78.1
 245   21:00   55.3    80    6.2   281      7.2   930.4    0.00       0    78.0
 245   21:10   55.7    75    6.0   292      7.3   930.3    0.00       0    77.9
 245   21:20   56.0    73    4.6   287      5.6   930.3    0.00       0    77.8
 245   21:30   56.5    71    2.8   255      4.0   930.2    0.00       0    77.7
 245   21:40   57.1    74    3.8   249      5.3   930.2    0.00       0    77.4
 245   21:50   57.0    78    4.2   259      5.2   930.1    0.00       0    77.2
 245   22:00   56.6    79    4.5   268      5.5   930.1    0.00       0    77.1

Return to Highlands Peak graphs page.


Western Regional Climate Center,wrcc@dri.edu